Saturday, April 19, 2014, 5:24 AM EDT
Back to Local

KMPO, Mt Pocono Pocono Mountains

Location: Pocono Summit, PA, United States Lat: 41.133
Local Time: 5:24 AM EDT ( 9:24 GMT) Lon: -75.383
Time Zone: US/Eastern Elev: 1915 ft

Show me the last for .
Show Decoded

2014-04-19 04:53 METAR KMPO 190853Z AUTO 32008KT 9SM CLR 04/M01 A3020 RMK AO2 SLP237 T00391006
                 56002 =
2014-04-19 03:53 METAR KMPO 190753Z AUTO 31007KT 9SM CLR 05/M01 A3020 RMK AO2 SLP238 T00501006 =
2014-04-19 02:53 METAR KMPO 190653Z AUTO 29007KT 9SM CLR 04/M01 A3019 RMK AO2 SLP235 T00391011 =
2014-04-19 01:53 METAR KMPO 190553Z AUTO 29008KT 10SM CLR 04/M01 A3020 RMK AO2 SLP240 T00441011
                 10056 20039 58005 =
2014-04-19 00:53 METAR KMPO 190453Z AUTO 29009KT 10SM CLR 05/M01 A3021 RMK AO2 SLP241 T00501011
                 400781017 =
2014-04-18 23:53 METAR KMPO 190353Z AUTO 30008KT 10SM CLR 04/M01 A3022 RMK AO2 SLP247 T00441011 =
2014-04-18 22:53 METAR KMPO 190253Z AUTO 26005KT 10SM CLR 04/M01 A3022 RMK AO2 SLP249 T00441011
                 58004 =
2014-04-18 21:53 METAR KMPO 190153Z AUTO 23004KT 10SM CLR 05/M01 A3023 RMK AO2 SLP252 T00501011 =
2014-04-18 20:53 METAR KMPO 190053Z AUTO 22004KT 10SM CLR 05/M02 A3024 RMK AO2 SLP257 T00501017 =
2014-04-18 19:53 METAR KMPO 182353Z AUTO 20005KT 10SM CLR 06/M02 A3023 RMK AO2 SLP254 T00561017
                 10078 20056 58013 =
2014-04-18 18:53 METAR KMPO 182253Z AUTO 20008KT 10SM CLR 07/M02 A3025 RMK AO2 SLP261 T00671017 =
2014-04-18 17:53 METAR KMPO 182153Z AUTO 21008KT 10SM FEW009 07/M02 A3026 RMK AO2 SLP263
                 T00721022 =
2014-04-18 17:46 METAR KMPO 182146Z AUTO 18006KT 10SM FEW008 07/M03 A3026 RMK AO2 T00721028 =
2014-04-18 16:53 METAR KMPO 182053Z AUTO 18008KT 10SM CLR 08/M03 A3027 RMK AO2 SLP268 T00781028
                 58025 =
2014-04-18 15:53 METAR KMPO 181953Z AUTO VRB03KT 10SM CLR 07/M02 A3030 RMK AO2 SLP276 T00721022 =
2014-04-18 14:53 METAR KMPO 181853Z AUTO VRB03KT 10SM CLR 07/M03 A3033 RMK AO2 SLP288 T00671033 =
2014-04-18 13:53 METAR KMPO 181753Z AUTO 16007KT 120V180 10SM CLR 07/M03 A3035 RMK AO2 SLP295
                 T00671028 10067 21006 58014 =
2014-04-18 12:53 METAR KMPO 181653Z AUTO 15008KT 10SM CLR 06/M03 A3037 RMK AO2 SLP303 T00561028 =
2014-04-18 11:53 METAR KMPO 181553Z AUTO 20005KT 10SM CLR 03/M03 A3039 RMK AO2 SLP312 T00281028 =
2014-04-18 10:53 METAR KMPO 181453Z AUTO 13009KT 10SM SCT015 02/M03 A3040 RMK AO2 SLP313
                 T00221028 58017 =
2014-04-18 10:39 METAR KMPO 181439Z AUTO 15008KT 10SM FEW013 02/M03 A3040 RMK AO2 T00171028 =
2014-04-18 09:53 METAR KMPO 181353Z AUTO 13007KT 10SM OVC012 01/M03 A3043 RMK AO2 SLP325
                 T00061028 =
2014-04-18 08:53 METAR KMPO 181253Z AUTO 16007KT 9SM BKN011 00/M03 A3043 RMK AO2 SLP325 T00001028
                 =
2014-04-18 07:53 METAR KMPO 181153Z AUTO 12007KT 8SM OVC010 M01/M03 A3045 RMK AO2 SLP330
                 T10061033 11006 21011 53009 =
2014-04-18 06:53 METAR KMPO 181053Z AUTO 12007KT 8SM OVC010 M01/M04 A3042 RMK AO2 SLP321
                 T10111039 =
2014-04-18 06:02 METAR KMPO 181002Z AUTO 17007KT 9SM OVC010 M01/M04 A3042 RMK AO2 T10111039 =
2014-04-18 05:53 METAR KMPO 180953Z AUTO 17006KT 10SM OVC009 M01/M03 A3042 RMK AO2 SLP319
                 T10111033 =

Support USWX by starting your Amazon purchase here.